createdAt,value
2019-04-28T00:00:24.034Z,1008.61
2019-04-28T00:01:24.020Z,1008.59
2019-04-28T00:02:24.081Z,1008.60
2019-04-28T00:03:23.990Z,1008.63
2019-04-28T00:04:23.989Z,1008.59
2019-04-28T00:05:23.987Z,1008.63
2019-04-28T00:06:23.970Z,1008.60
2019-04-28T00:07:23.993Z,1008.57
2019-04-28T00:08:23.938Z,1008.62
2019-04-28T00:09:23.924Z,1008.64
2019-04-28T00:10:23.916Z,1008.66
2019-04-28T00:11:23.914Z,1008.71
2019-04-28T00:12:23.927Z,1008.70
2019-04-28T00:13:23.892Z,1008.69
2019-04-28T00:14:23.868Z,1008.71
2019-04-28T00:15:23.864Z,1008.75
2019-04-28T00:16:23.854Z,1008.72
2019-04-28T00:17:23.864Z,1008.78
2019-04-28T00:18:23.821Z,1008.82
2019-04-28T00:19:23.809Z,1008.82
2019-04-28T00:20:23.805Z,1008.78
2019-04-28T00:21:23.796Z,1008.85
2019-04-28T00:22:23.798Z,1008.81
2019-04-28T00:23:23.775Z,1008.82
2019-04-28T00:24:23.753Z,1008.86
2019-04-28T00:25:23.739Z,1008.82
2019-04-28T00:26:23.731Z,1008.81
2019-04-28T00:27:23.746Z,1008.82
2019-04-28T00:28:23.727Z,1008.71
2019-04-28T00:29:23.696Z,1008.74
2019-04-28T00:30:23.684Z,1008.72
2019-04-28T00:31:23.675Z,1008.72
2019-04-28T00:32:23.680Z,1008.72
2019-04-28T00:33:23.664Z,1008.70
2019-04-28T00:34:23.654Z,1008.73
2019-04-28T00:35:23.630Z,1008.75
2019-04-28T00:36:23.622Z,1008.75
2019-04-28T00:37:23.618Z,1008.70
2019-04-28T00:38:23.599Z,1008.74
2019-04-28T00:39:23.590Z,1008.66
2019-04-28T00:40:23.564Z,1008.72
2019-04-28T00:41:23.568Z,1008.73
2019-04-28T00:42:23.562Z,1008.73
2019-04-28T00:43:23.541Z,1008.72
2019-04-28T00:44:23.536Z,1008.71
2019-04-28T00:45:23.552Z,1008.75
2019-04-28T00:46:23.502Z,1008.73
2019-04-28T00:47:23.515Z,1008.69
2019-04-28T00:48:23.480Z,1008.73
2019-04-28T00:49:23.474Z,1008.69
2019-04-28T00:50:23.466Z,1008.75
2019-04-28T00:51:23.457Z,1008.72
2019-04-28T00:52:23.481Z,1008.72
2019-04-28T00:53:23.424Z,1008.74
2019-04-28T00:54:23.409Z,1008.76
2019-04-28T00:55:23.403Z,1008.74
2019-04-28T00:56:23.414Z,1008.71
2019-04-28T00:57:23.391Z,1008.74
2019-04-28T00:58:23.382Z,1008.75
2019-04-28T00:59:23.357Z,1008.69
2019-04-28T01:00:23.346Z,1008.72
2019-04-28T01:01:23.343Z,1008.74
2019-04-28T01:02:23.349Z,1008.78
2019-04-28T01:03:23.977Z,1008.78
2019-04-28T01:04:23.301Z,1008.77
2019-04-28T01:05:23.286Z,1008.79
2019-04-28T01:06:23.282Z,1008.77
2019-04-28T01:07:23.279Z,1008.78
2019-04-28T01:08:23.314Z,1008.80
2019-04-28T01:09:23.245Z,1008.86
2019-04-28T01:10:23.288Z,1008.83
2019-04-28T01:11:23.221Z,1008.87
2019-04-28T01:12:23.222Z,1008.82
2019-04-28T01:13:23.836Z,1008.88
2019-04-28T01:14:23.188Z,1008.93
2019-04-28T01:15:23.179Z,1008.99
2019-04-28T01:16:23.167Z,1008.93
2019-04-28T01:17:23.183Z,1008.93
2019-04-28T01:18:23.169Z,1008.95
2019-04-28T01:19:23.161Z,1008.97
2019-04-28T01:20:23.122Z,1008.96
2019-04-28T01:21:23.107Z,1008.98
2019-04-28T01:22:23.102Z,1008.95
2019-04-28T01:23:23.116Z,1008.96
2019-04-28T01:24:23.090Z,1009.00
2019-04-28T01:25:23.093Z,1009.02
2019-04-28T01:26:23.062Z,1009.02
2019-04-28T01:27:23.045Z,1009.04
2019-04-28T01:28:23.056Z,1009.03
2019-04-28T01:29:23.028Z,1009.05
2019-04-28T01:30:23.024Z,1009.03
2019-04-28T01:31:23.025Z,1009.05
2019-04-28T01:32:22.986Z,1009.04
2019-04-28T01:33:22.996Z,1009.01
2019-04-28T01:34:22.964Z,1009.03
2019-04-28T01:35:22.956Z,1009.01
2019-04-28T01:36:22.960Z,1009.03
2019-04-28T01:37:22.935Z,1009.02
2019-04-28T01:38:22.940Z,1009.02
2019-04-28T01:39:22.916Z,1009.01
2019-04-28T01:40:22.900Z,1009.03
2019-04-28T01:41:22.894Z,1009.03
2019-04-28T01:42:22.892Z,1009.10
2019-04-28T01:43:22.898Z,1009.08
2019-04-28T01:44:22.874Z,1009.08
2019-04-28T01:45:22.855Z,1009.10
2019-04-28T01:46:22.827Z,1009.12
2019-04-28T01:47:22.830Z,1009.08
2019-04-28T01:48:22.843Z,1009.15
2019-04-28T01:49:22.810Z,1009.14
2019-04-28T01:50:22.778Z,1009.14
2019-04-28T01:51:22.776Z,1009.14
2019-04-28T01:52:22.771Z,1009.18
2019-04-28T01:53:22.776Z,1009.16
2019-04-28T01:54:22.740Z,1009.20
2019-04-28T01:55:22.733Z,1009.14
2019-04-28T01:56:22.714Z,1009.18
2019-04-28T01:57:22.713Z,1009.15
2019-04-28T01:58:22.716Z,1009.13
2019-04-28T01:59:22.716Z,1009.17
2019-04-28T02:00:25.259Z,1009.13
2019-04-28T02:01:22.654Z,1009.14
2019-04-28T02:02:22.652Z,1009.13
2019-04-28T02:03:22.644Z,1009.15
2019-04-28T02:04:22.724Z,1009.16
2019-04-28T02:05:22.612Z,1009.15
2019-04-28T02:06:22.604Z,1009.14
2019-04-28T02:07:22.588Z,1009.15
2019-04-28T02:08:22.579Z,1009.21
2019-04-28T02:09:22.586Z,1009.20
2019-04-28T02:10:22.571Z,1009.25
2019-04-28T02:11:22.544Z,1009.26
2019-04-28T02:12:22.537Z,1009.27
2019-04-28T02:13:22.523Z,1009.25
2019-04-28T02:14:22.529Z,1009.29
2019-04-28T02:15:22.508Z,1009.29
2019-04-28T02:16:22.486Z,1009.30
2019-04-28T02:17:22.479Z,1009.30
2019-04-28T02:18:22.474Z,1009.37
2019-04-28T02:19:22.476Z,1009.35
2019-04-28T02:20:22.454Z,1009.37
2019-04-28T02:21:22.440Z,1009.34
2019-04-28T02:22:22.422Z,1009.35
2019-04-28T02:23:22.412Z,1009.30
2019-04-28T02:24:22.426Z,1009.41
2019-04-28T02:25:22.393Z,1009.38
2019-04-28T02:26:22.383Z,1009.36
2019-04-28T08:38:13.924Z,1012.95
2019-04-28T08:39:13.895Z,1012.89
2019-04-28T08:40:14.346Z,1012.94
2019-04-28T08:41:13.913Z,1012.96
2019-04-28T08:42:13.853Z,1012.92
2019-04-28T08:43:13.844Z,1012.96
2019-04-28T08:44:13.836Z,1013.00
2019-04-28T08:45:13.852Z,1012.99
2019-04-28T08:46:13.837Z,1013.04
2019-04-28T08:47:13.844Z,1012.97
2019-04-28T08:48:13.799Z,1013.00
2019-04-28T08:49:13.777Z,1013.03
2019-04-28T08:50:13.782Z,1013.10
2019-04-28T08:51:13.787Z,1013.13
2019-04-28T08:52:13.760Z,1013.12
2019-04-28T08:53:14.118Z,1013.17
2019-04-28T08:54:13.778Z,1013.22
2019-04-28T08:55:13.730Z,1013.21
2019-04-28T08:56:13.734Z,1013.17
2019-04-28T08:57:13.704Z,1013.18
2019-04-28T08:58:13.724Z,1013.27
2019-04-28T08:59:13.678Z,1013.28
2019-04-28T09:00:13.679Z,1013.31
2019-04-28T09:01:13.689Z,1013.28
2019-04-28T09:02:13.642Z,1013.34
2019-04-28T09:03:13.645Z,1013.29
2019-04-28T09:04:15.486Z,1013.26
2019-04-28T09:05:13.688Z,1013.30
2019-04-28T09:06:13.681Z,1013.33
2019-04-28T09:07:13.620Z,1013.31
2019-04-28T09:08:13.608Z,1013.33
2019-04-28T09:09:13.602Z,1013.29
2019-04-28T09:10:13.742Z,1013.32
2019-04-28T09:11:13.613Z,1013.32
2019-04-28T09:12:13.534Z,1013.25
2019-04-28T09:13:13.553Z,1013.31
2019-04-28T09:14:13.524Z,1013.30
2019-04-28T09:15:13.534Z,1013.27
2019-04-28T09:16:13.540Z,1013.28
2019-04-28T09:17:13.583Z,1013.28
2019-04-28T09:18:13.469Z,1013.31
2019-04-28T09:19:13.468Z,1013.36
2019-04-28T09:20:13.483Z,1013.33
2019-04-28T09:21:13.446Z,1013.34
2019-04-28T09:22:13.455Z,1013.39
2019-04-28T09:23:13.456Z,1013.37
2019-04-28T09:24:13.731Z,1013.35
2019-04-28T09:25:13.418Z,1013.41
2019-04-28T09:26:13.397Z,1013.40
2019-04-28T09:27:13.397Z,1013.38
2019-04-28T09:28:13.389Z,1013.43
2019-04-28T09:29:13.364Z,1013.42
2019-04-28T09:30:13.366Z,1013.40
2019-04-28T09:31:13.348Z,1013.38
2019-04-28T09:32:13.344Z,1013.46
2019-04-28T09:33:13.298Z,1013.46
2019-04-28T09:34:13.298Z,1013.46
2019-04-28T09:35:13.296Z,1013.48
2019-04-28T09:36:13.272Z,1013.50
2019-04-28T09:37:13.288Z,1013.48
2019-04-28T09:38:13.305Z,1013.48
2019-04-28T09:39:13.280Z,1013.50
2019-04-28T09:40:13.230Z,1013.52
2019-04-28T09:41:13.221Z,1013.47
2019-04-28T09:42:13.240Z,1013.53
2019-04-28T09:43:13.206Z,1013.58
2019-04-28T09:44:13.202Z,1013.57
2019-04-28T09:45:13.162Z,1013.59
2019-04-28T09:46:13.152Z,1013.56
2019-04-28T09:47:13.216Z,1013.61
2019-04-28T09:48:13.129Z,1013.65
2019-04-28T09:49:13.172Z,1013.69
2019-04-28T09:50:13.119Z,1013.66
2019-04-28T09:51:13.097Z,1013.63
2019-04-28T09:52:13.238Z,1013.64
2019-04-28T09:53:13.114Z,1013.63
2019-04-28T09:54:13.064Z,1013.67
2019-04-28T09:55:13.096Z,1013.70
2019-04-28T09:56:13.079Z,1013.73
2019-04-28T09:57:13.076Z,1013.66
2019-04-28T09:58:13.035Z,1013.68
2019-04-28T09:59:13.017Z,1013.70
2019-04-28T10:00:13.009Z,1013.66
2019-04-28T10:01:13.069Z,1013.65
2019-04-28T10:02:13.098Z,1013.63
2019-04-28T10:03:12.998Z,1013.64
2019-04-28T10:04:12.975Z,1013.65
2019-04-28T10:05:12.946Z,1013.63
2019-04-28T10:06:12.952Z,1013.68
2019-04-28T10:07:12.953Z,1013.69
2019-04-28T10:08:12.915Z,1013.73
2019-04-28T10:09:12.901Z,1013.68
2019-04-28T10:10:12.884Z,1013.74
2019-04-28T10:11:12.942Z,1013.69
2019-04-28T10:12:12.923Z,1013.68
2019-04-28T10:13:12.947Z,1013.74
2019-04-28T10:14:12.854Z,1013.77
2019-04-28T10:15:12.991Z,1013.78
2019-04-28T10:16:12.849Z,1013.72
2019-04-28T10:17:12.835Z,1013.76
2019-04-28T10:18:12.822Z,1013.76
2019-04-28T10:19:12.783Z,1013.74
2019-04-28T10:20:12.838Z,1013.75
2019-04-28T10:21:12.764Z,1013.77
2019-04-28T10:22:12.755Z,1013.76
2019-04-28T10:23:12.752Z,1013.75
2019-04-28T10:24:12.730Z,1013.74
2019-04-28T10:25:12.711Z,1013.78
2019-04-28T10:26:12.714Z,1013.73
2019-04-28T10:27:12.692Z,1013.75
2019-04-28T10:28:12.717Z,1013.77
2019-04-28T10:29:12.677Z,1013.80
2019-04-28T10:30:12.721Z,1013.81
2019-04-28T10:31:13.477Z,1013.77
2019-04-28T10:32:12.635Z,1013.75
2019-04-28T10:33:12.650Z,1013.78
2019-04-28T10:34:12.622Z,1013.78
2019-04-28T10:35:12.636Z,1013.83
2019-04-28T10:36:12.589Z,1013.80
2019-04-28T10:37:12.575Z,1013.77
2019-04-28T10:38:12.590Z,1013.70
2019-04-28T10:39:12.558Z,1013.70
2019-04-28T10:40:12.563Z,1013.81
2019-04-28T10:41:12.538Z,1013.71
2019-04-28T10:42:12.601Z,1013.72
2019-04-28T10:43:12.533Z,1013.74
2019-04-28T10:44:12.556Z,1013.75
2019-04-28T10:45:12.496Z,1013.76
2019-04-28T10:46:12.484Z,1013.81
2019-04-28T10:47:12.467Z,1013.76
2019-04-28T10:48:12.482Z,1013.80
2019-04-28T10:49:12.441Z,1013.86
2019-04-28T10:50:12.431Z,1013.86
2019-04-28T10:51:12.980Z,1013.89
2019-04-28T10:52:12.414Z,1013.89
2019-04-28T10:53:12.428Z,1013.88
2019-04-28T10:54:12.452Z,1013.87
2019-04-28T10:55:12.375Z,1013.86
2019-04-28T10:56:12.370Z,1013.87
2019-04-28T10:57:12.357Z,1013.89
2019-04-28T10:58:12.375Z,1013.89
2019-04-28T10:59:12.336Z,1013.88
2019-04-28T11:00:12.323Z,1013.81
2019-04-28T11:01:12.307Z,1013.89
2019-04-28T11:02:12.302Z,1013.90
2019-04-28T11:03:12.306Z,1013.84
2019-04-28T11:04:12.281Z,1013.91
2019-04-28T11:05:12.267Z,1013.91
2019-04-28T11:06:12.661Z,1013.83
2019-04-28T11:07:12.242Z,1013.88
2019-04-28T11:08:12.263Z,1013.88
2019-04-28T11:09:12.229Z,1013.78
2019-04-28T11:10:12.308Z,1014.00
2019-04-28T11:11:12.347Z,1014.04
2019-04-28T11:12:12.184Z,1014.06
2019-04-28T11:13:12.606Z,1014.23
2019-04-28T11:14:14.188Z,1014.20
2019-04-28T11:15:12.303Z,1013.87
2019-04-28T11:16:12.151Z,1013.83
2019-04-28T11:17:12.140Z,1013.86
2019-04-28T11:18:12.166Z,1013.82
2019-04-28T11:19:12.117Z,1013.82
2019-04-28T11:20:12.116Z,1013.94
2019-04-28T11:21:12.101Z,1013.99
2019-04-28T11:22:12.088Z,1014.16
2019-04-28T11:23:12.092Z,1013.91
2019-04-28T11:24:12.070Z,1014.21
2019-04-28T11:25:12.066Z,1014.15
2019-04-28T11:26:12.035Z,1014.17
2019-04-28T11:27:12.031Z,1014.23
2019-04-28T11:28:12.049Z,1014.06
2019-04-28T11:29:12.009Z,1014.21
2019-04-28T11:30:11.991Z,1013.84
2019-04-28T11:31:11.990Z,1013.81
2019-04-28T11:32:11.982Z,1013.86
2019-04-28T11:33:11.956Z,1014.21
2019-04-28T11:34:11.964Z,1014.23
2019-04-28T11:35:21.275Z,1013.91
2019-04-28T11:36:12.929Z,1013.87
2019-04-28T11:37:11.915Z,1013.89
2019-04-28T11:38:11.999Z,1013.98
2019-04-28T11:39:12.027Z,1013.97
2019-04-28T11:40:12.443Z,1013.92
2019-04-28T11:41:11.867Z,1013.98
2019-04-28T11:42:11.883Z,1014.01
2019-04-28T11:43:11.862Z,1014.01
2019-04-28T11:44:11.868Z,1014.04
2019-04-28T11:45:11.843Z,1013.99
2019-04-28T11:46:11.821Z,1014.03
2019-04-28T11:47:11.805Z,1014.06
2019-04-28T11:48:11.799Z,1014.11
2019-04-28T11:49:11.819Z,1014.06
2019-04-28T11:50:11.796Z,1014.10
2019-04-28T11:51:11.765Z,1014.04
2019-04-28T11:52:11.913Z,1014.11
2019-04-28T11:53:11.741Z,1014.04
2019-04-28T11:54:11.752Z,1014.09
2019-04-28T11:55:11.726Z,1014.05
2019-04-28T11:56:11.769Z,1014.06
2019-04-28T11:57:11.712Z,1014.08
2019-04-28T11:58:11.682Z,1014.03
2019-04-28T11:59:11.716Z,1014.04
2019-04-28T12:00:11.672Z,1014.04
2019-04-28T12:01:11.653Z,1014.08
2019-04-28T12:02:11.662Z,1014.02
2019-04-28T12:03:11.633Z,1014.01
2019-04-28T12:04:11.651Z,1014.04
2019-04-28T12:05:11.611Z,1014.04
2019-04-28T12:06:11.596Z,1014.01
2019-04-28T12:07:11.582Z,1014.03
2019-04-28T12:08:11.601Z,1014.05
2019-04-28T12:09:11.590Z,1014.04
2019-04-28T12:10:11.548Z,1014.08
2019-04-28T12:11:11.537Z,1014.04
2019-04-28T12:12:11.536Z,1014.00
2019-04-28T12:13:11.528Z,1014.08
2019-04-28T12:14:11.549Z,1014.00
2019-04-28T12:15:11.493Z,1014.00
2019-04-28T12:16:11.553Z,1013.99
2019-04-28T12:17:11.477Z,1014.06
2019-04-28T12:18:11.469Z,1014.02
2019-04-28T12:19:11.480Z,1014.06
2019-04-28T12:20:11.440Z,1014.08
2019-04-28T12:21:11.481Z,1014.07
2019-04-28T12:22:11.421Z,1014.11
2019-04-28T12:23:11.411Z,1014.09
2019-04-28T12:24:11.438Z,1014.05
2019-04-28T12:25:11.387Z,1014.12
2019-04-28T12:26:11.373Z,1014.17
2019-04-28T12:27:11.357Z,1014.17
2019-04-28T12:28:11.349Z,1014.11
2019-04-28T12:29:11.360Z,1014.11
2019-04-28T12:30:11.346Z,1014.10
2019-04-28T12:31:11.319Z,1014.18
2019-04-28T12:32:11.316Z,1014.18
2019-04-28T12:33:11.299Z,1014.18
2019-04-28T12:34:11.311Z,1014.17
2019-04-28T12:35:11.280Z,1014.14
2019-04-28T12:36:11.258Z,1014.16
2019-04-28T12:37:11.247Z,1014.19
2019-04-28T12:38:11.241Z,1014.13
2019-04-28T12:39:11.273Z,1014.15
2019-04-28T12:40:11.219Z,1014.14
2019-04-28T12:41:11.206Z,1014.15
2019-04-28T12:42:11.195Z,1014.13
2019-04-28T12:43:11.191Z,1014.13
2019-04-28T12:44:11.188Z,1014.14
2019-04-28T12:45:11.199Z,1014.15
2019-04-28T12:46:11.146Z,1014.19
2019-04-28T12:47:11.149Z,1014.16
2019-04-28T12:48:11.132Z,1014.14
2019-04-28T12:49:11.166Z,1014.16
2019-04-28T12:50:11.113Z,1014.15
2019-04-28T12:51:11.100Z,1014.20
2019-04-28T12:52:11.101Z,1014.21
2019-04-28T12:53:11.086Z,1014.20
2019-04-28T12:54:11.166Z,1014.22
2019-04-28T12:55:11.076Z,1014.20
2019-04-28T12:56:11.051Z,1014.22
2019-04-28T12:57:11.034Z,1014.20
2019-04-28T12:58:11.073Z,1014.19
2019-04-28T12:59:11.021Z,1014.22
2019-04-28T13:00:11.043Z,1014.19
2019-04-28T13:01:10.989Z,1014.25
2019-04-28T13:02:10.971Z,1014.28
2019-04-28T13:03:10.964Z,1014.20
2019-04-28T13:04:10.952Z,1014.17
2019-04-28T13:05:10.968Z,1014.21
2019-04-28T13:06:10.926Z,1014.21
2019-04-28T13:07:10.924Z,1014.22
2019-04-28T13:08:10.912Z,1014.16
2019-04-28T13:09:10.911Z,1014.20
2019-04-28T13:10:11.095Z,1014.21
2019-04-28T13:11:10.887Z,1014.21
2019-04-28T13:12:10.871Z,1014.17
2019-04-28T13:13:10.849Z,1014.21
2019-04-28T13:14:10.843Z,1014.19
2019-04-28T13:15:10.872Z,1014.24
2019-04-28T13:16:10.813Z,1014.23
2019-04-28T13:17:10.842Z,1014.21
2019-04-28T13:18:10.803Z,1014.27
2019-04-28T13:19:10.805Z,1014.30
2019-04-28T13:20:10.804Z,1014.32
2019-04-28T13:21:10.772Z,1014.27
2019-04-28T13:22:10.759Z,1014.24
2019-04-28T13:23:10.740Z,1014.26
2019-04-28T13:24:10.729Z,1014.24
2019-04-28T13:25:10.761Z,1014.29
2019-04-28T13:26:10.857Z,1014.21
2019-04-28T13:27:10.711Z,1014.29
2019-04-28T13:28:10.689Z,1014.28
2019-04-28T13:29:10.673Z,1014.26
2019-04-28T13:30:10.735Z,1014.24
2019-04-28T13:31:10.651Z,1014.24
2019-04-28T13:32:10.715Z,1014.28
2019-04-28T13:33:10.655Z,1014.28
2019-04-28T13:34:10.689Z,1014.30
2019-04-28T13:35:11.508Z,1014.27
2019-04-28T13:36:15.016Z,1014.28
2019-04-28T13:37:11.521Z,1014.33
2019-04-28T13:38:11.553Z,1014.27
2019-04-28T13:39:10.580Z,1014.31
2019-04-28T13:40:10.606Z,1014.33
2019-04-28T13:41:10.639Z,1014.30
2019-04-28T13:42:10.526Z,1014.25
2019-04-28T13:43:10.523Z,1014.26
2019-04-28T13:44:10.619Z,1014.27
2019-04-28T13:45:10.592Z,1014.22
2019-04-28T13:46:10.483Z,1014.27
2019-04-28T13:47:10.476Z,1014.27
2019-04-28T13:48:10.467Z,1014.22
2019-04-28T13:49:10.450Z,1014.26
2019-04-28T13:50:10.502Z,1014.23
2019-04-28T13:51:10.454Z,1014.24
2019-04-28T13:52:10.415Z,1014.21
2019-04-28T13:53:10.436Z,1014.23
2019-04-28T13:54:10.421Z,1014.22
2019-04-28T13:55:10.412Z,1014.27
2019-04-28T13:56:10.379Z,1014.32
2019-04-28T13:57:10.358Z,1014.21
2019-04-28T13:58:10.344Z,1014.21
2019-04-28T13:59:10.339Z,1014.21
2019-04-28T14:00:10.374Z,1014.19
2019-04-28T14:01:10.317Z,1014.19
2019-04-28T14:02:10.304Z,1014.17
2019-04-28T14:03:10.288Z,1014.18
2019-04-28T14:04:10.301Z,1014.24
2019-04-28T14:05:10.343Z,1014.16
2019-04-28T14:06:10.287Z,1014.19
2019-04-28T14:07:10.295Z,1014.14
2019-04-28T14:08:10.245Z,1014.15
2019-04-28T14:09:13.087Z,1014.21
2019-04-28T14:10:10.221Z,1014.19
2019-04-28T14:11:10.224Z,1014.24
2019-04-28T14:12:10.236Z,1014.15
2019-04-28T14:13:10.181Z,1014.19
2019-04-28T14:14:10.196Z,1014.16
2019-04-28T14:15:10.161Z,1014.10
2019-04-28T14:16:10.211Z,1014.12
2019-04-28T14:17:10.178Z,1014.14
2019-04-28T14:18:10.193Z,1014.14
2019-04-28T14:19:10.116Z,1014.12
2019-04-28T14:20:10.103Z,1014.13
2019-04-28T14:21:10.129Z,1014.09
2019-04-28T14:22:10.087Z,1014.09
2019-04-28T14:23:10.071Z,1014.14
2019-04-28T14:24:10.062Z,1014.18
2019-04-28T14:25:10.059Z,1014.16
2019-04-28T14:26:10.059Z,1014.14
2019-04-28T14:27:11.008Z,1014.27
2019-04-28T14:28:10.114Z,1014.26
2019-04-28T14:29:10.025Z,1014.25
2019-04-28T14:30:10.002Z,1014.26
2019-04-28T14:31:10.056Z,1014.24
2019-04-28T14:32:09.983Z,1014.25
2019-04-28T14:33:09.964Z,1014.24
2019-04-28T14:34:09.997Z,1014.26
2019-04-28T14:35:09.958Z,1014.23
2019-04-28T14:36:09.953Z,1014.27
2019-04-28T14:37:09.909Z,1014.24
2019-04-28T14:38:09.902Z,1014.29
2019-04-28T14:39:09.933Z,1014.26
2019-04-28T14:40:09.877Z,1014.28
2019-04-28T14:41:09.913Z,1014.27
2019-04-28T14:42:09.916Z,1014.26
2019-04-28T14:43:09.844Z,1014.31
2019-04-28T14:44:09.830Z,1014.26
2019-04-28T14:45:09.857Z,1014.23
2019-04-28T14:46:09.835Z,1014.21
2019-04-28T14:47:09.809Z,1014.21
2019-04-28T14:48:09.798Z,1014.22
2019-04-28T14:49:09.783Z,1014.24
2019-04-28T14:50:09.781Z,1014.15
2019-04-28T14:51:09.798Z,1014.20
2019-04-28T14:52:09.749Z,1014.23
2019-04-28T14:53:09.767Z,1014.22
2019-04-28T14:54:09.801Z,1014.16
2019-04-28T14:55:09.727Z,1014.19
2019-04-28T14:56:09.725Z,1014.24
2019-04-28T14:57:09.701Z,1014.27
2019-04-28T14:58:09.698Z,1014.22
2019-04-28T14:59:09.665Z,1014.19
2019-04-28T15:00:09.660Z,1014.28
2019-04-28T15:01:09.711Z,1014.31
2019-04-28T15:02:09.679Z,1014.27
2019-04-28T15:03:09.642Z,1014.23
2019-04-28T15:04:09.639Z,1014.26
2019-04-28T15:05:09.652Z,1014.24
2019-04-28T15:06:09.657Z,1014.25
2019-04-28T15:07:09.575Z,1014.29
2019-04-28T15:08:09.583Z,1014.28
2019-04-28T15:09:09.563Z,1014.30
2019-04-28T15:10:09.547Z,1014.36
2019-04-28T15:11:09.631Z,1014.29
2019-04-28T15:12:09.522Z,1014.34
2019-04-28T15:13:09.528Z,1014.31
2019-04-28T15:14:09.598Z,1014.35
2019-04-28T15:15:09.562Z,1014.39
2019-04-28T15:16:09.591Z,1014.40
2019-04-28T15:17:09.502Z,1014.38
2019-04-28T15:18:09.506Z,1014.42
2019-04-28T15:19:09.488Z,1014.40
2019-04-28T15:20:09.485Z,1014.44
2019-04-28T15:21:09.567Z,1014.46
2019-04-28T15:22:09.422Z,1014.36
2019-04-28T15:23:09.403Z,1014.42
2019-04-28T15:24:09.386Z,1014.40
2019-04-28T15:25:09.403Z,1014.39
2019-04-28T15:26:09.413Z,1014.32
2019-04-28T15:27:09.395Z,1014.31
2019-04-28T15:28:09.375Z,1014.26
2019-04-28T15:29:09.363Z,1014.30
2019-04-28T15:30:09.327Z,1014.31
2019-04-28T15:31:09.334Z,1014.38
2019-04-28T15:32:09.355Z,1014.35
2019-04-28T15:33:09.286Z,1014.38
2019-04-28T15:34:09.281Z,1014.35
2019-04-28T15:35:09.270Z,1014.41
2019-04-28T15:36:09.270Z,1014.37
2019-04-28T15:37:10.312Z,1014.42
2019-04-28T15:38:09.267Z,1014.36
2019-04-28T15:39:09.248Z,1014.42
2019-04-28T15:40:09.225Z,1014.42
2019-04-28T15:41:20.901Z,1014.40
2019-04-28T15:42:10.233Z,1014.44
2019-04-28T15:43:09.181Z,1014.45
2019-04-28T15:44:09.172Z,1014.47
2019-04-28T15:45:09.322Z,1014.44
2019-04-28T15:46:09.156Z,1014.41
2019-04-28T15:47:09.134Z,1014.42
2019-04-28T15:48:09.129Z,1014.43
2019-04-28T15:49:09.124Z,1014.45
2019-04-28T15:50:09.151Z,1014.46
2019-04-28T15:51:09.153Z,1014.44
2019-04-28T15:52:09.123Z,1014.42
2019-04-28T15:53:09.086Z,1014.42
2019-04-28T15:54:09.051Z,1014.43
2019-04-28T15:55:09.057Z,1014.42
2019-04-28T15:56:09.063Z,1014.43
2019-04-28T15:57:09.071Z,1014.43
2019-04-28T15:58:09.011Z,1014.40
2019-04-28T15:59:09.020Z,1014.43
2019-04-28T16:00:08.995Z,1014.44
2019-04-28T16:01:08.975Z,1014.45
2019-04-28T16:02:09.006Z,1014.45
2019-04-28T16:03:08.987Z,1014.52
2019-04-28T16:04:08.969Z,1014.41
2019-04-28T16:05:08.956Z,1014.38
2019-04-28T16:06:08.964Z,1014.42
2019-04-28T16:07:08.936Z,1014.41
2019-04-28T16:08:08.923Z,1014.45
2019-04-28T16:10:10.028Z,1014.42
2019-04-28T16:11:08.883Z,1014.41
2019-04-28T16:12:08.889Z,1014.41
2019-04-28T16:13:08.852Z,1014.42
2019-04-28T16:14:08.852Z,1014.46
2019-04-28T16:15:08.843Z,1014.43
2019-04-28T16:16:08.824Z,1014.39
2019-04-28T16:17:08.835Z,1014.39
2019-04-28T16:18:08.809Z,1014.46
2019-04-28T16:19:08.786Z,1014.40
2019-04-28T16:20:08.783Z,1014.37
2019-04-28T16:21:08.768Z,1014.37
2019-04-28T16:22:08.799Z,1014.34
2019-04-28T16:23:08.759Z,1014.34
2019-04-28T16:24:08.731Z,1014.39
2019-04-28T16:25:08.717Z,1014.37
2019-04-28T16:26:08.719Z,1014.33
2019-04-28T16:27:08.729Z,1014.36
2019-04-28T16:28:08.704Z,1014.40
2019-04-28T16:29:08.671Z,1014.42
2019-04-28T16:30:08.681Z,1014.39
2019-04-28T16:31:08.653Z,1014.43
2019-04-28T16:32:09.900Z,1014.41
2019-04-28T16:33:08.634Z,1014.41
2019-04-28T16:34:08.639Z,1014.47
2019-04-28T16:35:08.613Z,1014.47
2019-04-28T16:36:08.601Z,1014.46
2019-04-28T16:37:08.625Z,1014.42
2019-04-28T16:38:08.579Z,1014.43
2019-04-28T16:39:08.573Z,1014.41
2019-04-28T16:40:09.667Z,1014.45
2019-04-28T16:41:08.539Z,1014.42
2019-04-28T16:42:08.693Z,1014.46
2019-04-28T16:43:08.525Z,1014.45
2019-04-28T16:44:08.524Z,1014.50
2019-04-28T16:45:08.516Z,1014.51
2019-04-28T16:46:08.483Z,1014.44
2019-04-28T16:47:08.490Z,1014.48
2019-04-28T16:48:08.465Z,1014.48
2019-04-28T16:49:08.475Z,1014.48
2019-04-28T16:50:08.480Z,1014.46
2019-04-28T16:51:08.461Z,1014.54
2019-04-28T16:52:08.463Z,1014.50
2019-04-28T16:53:08.402Z,1014.50
2019-04-28T16:54:08.396Z,1014.57
2019-04-28T16:55:08.384Z,1014.57
2019-04-28T16:56:08.405Z,1014.55
2019-04-28T16:57:08.394Z,1014.57
2019-04-28T16:58:08.390Z,1014.57
2019-04-28T16:59:08.340Z,1014.60
2019-04-28T17:00:08.325Z,1014.58
2019-04-28T17:01:08.341Z,1014.57
2019-04-28T17:02:08.320Z,1014.55
2019-04-28T17:03:08.342Z,1014.55
2019-04-28T17:04:08.291Z,1014.55
2019-04-28T17:05:08.277Z,1014.61
2019-04-28T17:06:08.267Z,1014.61
2019-04-28T17:07:08.251Z,1014.56
2019-04-28T17:08:08.276Z,1014.52
2019-04-28T17:09:08.229Z,1014.52
2019-04-28T17:10:08.215Z,1014.57
2019-04-28T17:11:08.213Z,1014.49
2019-04-28T17:12:08.208Z,1014.54
2019-04-28T17:13:08.230Z,1014.54
2019-04-28T17:14:08.181Z,1014.54
2019-04-28T17:15:08.178Z,1014.53
2019-04-28T17:16:08.164Z,1014.53
2019-04-28T17:17:08.186Z,1014.52
2019-04-28T17:18:08.165Z,1014.51
2019-04-28T17:19:08.128Z,1014.58
2019-04-28T17:20:08.140Z,1014.60
2019-04-28T17:21:08.241Z,1014.56
2019-04-28T17:22:08.093Z,1014.62
2019-04-28T17:23:08.101Z,1014.60
2019-04-28T17:24:08.101Z,1014.59
2019-04-28T17:25:08.066Z,1014.60
2019-04-28T17:26:11.123Z,1014.67
2019-04-28T17:27:08.036Z,1014.66
2019-04-28T17:28:08.067Z,1014.69
2019-04-28T17:29:08.008Z,1014.68
2019-04-28T17:30:08.015Z,1014.66
2019-04-28T17:31:07.994Z,1014.72
2019-04-28T17:32:07.976Z,1014.77
2019-04-28T17:33:08.017Z,1014.76
2019-04-28T17:34:07.967Z,1014.73
2019-04-28T17:35:07.952Z,1014.73
2019-04-28T17:36:07.956Z,1014.77
2019-04-28T17:37:07.950Z,1014.77
2019-04-28T17:38:07.962Z,1014.75
2019-04-28T17:39:07.898Z,1014.74
2019-04-28T17:40:07.889Z,1014.78
2019-04-28T17:41:07.899Z,1014.78
2019-04-28T17:42:07.880Z,1014.77
2019-04-28T17:43:07.894Z,1014.78
2019-04-28T17:44:07.903Z,1014.77
2019-04-28T17:45:07.842Z,1014.80
2019-04-28T17:46:08.045Z,1014.85
2019-04-28T17:47:07.830Z,1014.82
2019-04-28T17:48:07.801Z,1014.85
2019-04-28T17:49:07.926Z,1014.84
2019-04-28T17:50:07.785Z,1014.87
2019-04-28T17:51:07.771Z,1014.92
2019-04-28T17:52:07.781Z,1014.88
2019-04-28T17:53:07.760Z,1014.93
2019-04-28T17:54:07.774Z,1014.90
2019-04-28T17:55:07.729Z,1014.96
2019-04-28T17:56:07.728Z,1014.91
2019-04-28T17:57:07.714Z,1014.95
2019-04-28T17:58:07.700Z,1014.97
2019-04-28T17:59:07.738Z,1014.97
2019-04-28T18:00:07.692Z,1014.97
2019-04-28T18:01:07.664Z,1014.99
2019-04-28T18:02:07.651Z,1014.97
2019-04-28T18:03:07.640Z,1014.99
2019-04-28T18:04:07.674Z,1015.02
2019-04-28T18:05:07.613Z,1015.00
2019-04-28T18:06:17.533Z,1014.99
2019-04-28T18:07:08.586Z,1015.01
2019-04-28T18:08:20.467Z,1015.01
2019-04-28T18:09:08.598Z,1015.06
2019-04-28T18:10:07.588Z,1015.07
2019-04-28T18:11:07.537Z,1015.06
2019-04-28T18:12:07.533Z,1015.05
2019-04-28T18:13:07.527Z,1015.11
2019-04-28T18:14:07.516Z,1015.08
2019-04-28T18:15:07.523Z,1015.10
2019-04-28T18:16:07.486Z,1015.13
2019-04-28T18:17:07.529Z,1015.13